Time;durP1;ratioP1;P1;durP2;ratioP2;P2;SDS_P1;SDS_P2;PMS_P1;PMS_P2;Temp;Humidity;BMP_temperature;BMP_pressure;BME280_temperature;BME280_humidity;BME280_pressure;Samples;Min_cycle;Max_cycle;Signal;HPM_P1;HPM_P2
2022/12/10 00:01:10;;;;;;;26.00;14.80;;;;;;;4.10;68.71;100087.74;1754723;80;21037;-58
2022/12/10 00:03:37;;;;;;;31.60;15.38;;;;;;;4.10;68.67;100094.25;1744916;80;21074;-59
2022/12/10 00:06:05;;;;;;;34.20;17.00;;;;;;;4.06;68.59;100086.26;1742922;80;21497;-58
2022/12/10 00:08:33;;;;;;;24.60;13.48;;;;;;;4.02;68.53;100095.19;1748617;80;21076;-59
2022/12/10 00:11:04;;;;;;;22.10;15.18;;;;;;;3.96;68.52;100092.92;1749003;80;21521;-58
2022/12/10 00:13:32;;;;;;;25.82;14.25;;;;;;;3.94;68.54;100085.67;1714032;80;21079;-59
2022/12/10 00:16:04;;;;;;;34.92;25.52;;;;;;;3.89;68.63;100073.73;1742973;81;21028;-58
2022/12/10 00:18:30;;;;;;;37.28;25.12;;;;;;;3.87;68.65;100070.87;1750743;80;21016;-59
2022/12/10 00:20:57;;;;;;;23.07;11.97;;;;;;;3.87;68.57;100063.88;1747447;80;21664;-58
2022/12/10 00:23:24;;;;;;;21.25;11.05;;;;;;;3.97;68.51;100078.96;1746739;80;21288;-59
2022/12/10 00:25:51;;;;;;;19.75;12.80;;;;;;;4.05;68.50;100074.16;1747827;80;21707;-59
2022/12/10 00:28:17;;;;;;;20.57;11.88;;;;;;;4.08;68.37;100063.56;1702962;82;21060;-59
2022/12/10 00:30:44;;;;;;;32.98;22.20;;;;;;;4.07;68.40;100065.81;1748707;80;21037;-59
2022/12/10 00:33:13;;;;;;;26.90;12.53;;;;;;;4.05;68.55;100054.63;1753980;81;21024;-59
2022/12/10 00:35:39;;;;;;;30.80;21.45;;;;;;;4.05;68.75;100044.21;1747026;81;21355;-59
2022/12/10 00:38:06;;;;;;;19.57;10.78;;;;;;;4.03;68.75;100035.66;1753778;80;21509;-59
2022/12/10 00:40:33;;;;;;;24.30;11.78;;;;;;;4.01;68.85;100032.31;1751686;80;21057;-59
2022/12/10 00:43:00;;;;;;;29.82;21.15;;;;;;;3.98;68.79;100029.41;1746296;81;21579;-60
2022/12/10 00:45:27;;;;;;;28.90;19.80;;;;;;;3.95;68.79;100019.64;1753848;81;21056;-59
2022/12/10 00:47:54;;;;;;;14.50;6.85;;;;;;;3.95;68.66;100014.44;1751545;80;21249;-58
2022/12/10 00:50:20;;;;;;;15.48;8.50;;;;;;;4.01;68.48;100007.58;1751613;80;21028;-59
2022/12/10 00:52:48;;;;;;;16.80;8.48;;;;;;;4.06;68.47;100004.24;1753611;80;21205;-58
2022/12/10 00:55:14;;;;;;;18.15;8.35;;;;;;;4.12;68.47;100001.28;1760143;80;21027;-58
2022/12/10 00:57:41;;;;;;;23.77;17.12;;;;;;;4.14;68.44;99994.22;1753940;80;21353;-58
2022/12/10 01:00:09;;;;;;;16.37;8.78;;;;;;;4.14;68.68;99989.48;1753316;80;22498;-58
2022/12/10 01:02:37;;;;;;;24.90;18.40;;;;;;;4.11;68.78;99981.38;1749183;81;21087;-58
2022/12/10 01:05:04;;;;;;;17.25;9.15;;;;;;;4.10;68.85;99971.88;1755871;80;21015;-58
2022/12/10 01:07:31;;;;;;;25.65;17.50;;;;;;;4.09;68.85;99972.82;1753747;80;21103;-58
2022/12/10 01:09:58;;;;;;;14.75;8.65;;;;;;;4.03;68.89;99957.55;1757858;79;21066;-60
2022/12/10 01:12:24;;;;;;;25.23;18.48;;;;;;;4.00;68.87;99965.55;1748400;80;21296;-60
2022/12/10 01:14:51;;;;;;;17.95;7.53;;;;;;;3.97;69.11;99957.47;1758685;79;21073;-59
2022/12/10 01:17:18;;;;;;;15.75;8.28;;;;;;;3.97;69.05;99973.09;1754854;81;21009;-60
2022/12/10 01:19:45;;;;;;;13.28;8.43;;;;;;;4.07;69.06;99975.98;1748449;79;21170;-58
2022/12/10 01:22:11;;;;;;;15.88;8.75;;;;;;;4.16;68.90;99969.38;1762202;80;22336;-59
2022/12/10 01:24:38;;;;;;;15.75;8.88;;;;;;;4.18;68.70;99970.95;1756856;80;21071;-59
2022/12/10 01:27:05;;;;;;;20.50;14.50;;;;;;;4.22;68.90;99963.34;1752364;80;21123;-58
2022/12/10 01:29:32;;;;;;;21.20;14.98;;;;;;;4.23;68.99;99952.45;1763014;80;21157;-58
2022/12/10 01:31:58;;;;;;;13.78;6.65;;;;;;;4.17;68.86;99946.30;1758229;79;21517;-58
2022/12/10 01:34:25;;;;;;;20.85;14.15;;;;;;;4.13;69.08;99952.64;1756210;80;21608;-59
2022/12/10 01:36:54;;;;;;;15.15;6.65;;;;;;;4.11;69.34;99950.13;1757511;79;22287;-58
2022/12/10 01:39:21;;;;;;;13.43;6.35;;;;;;;4.10;69.43;99951.04;1753952;80;21094;-58
2022/12/10 01:41:52;;;;;;;17.55;12.75;;;;;;;4.09;69.62;99952.81;1755559;80;21069;-58
2022/12/10 01:44:24;;;;;;;9.73;4.70;;;;;;;4.06;69.61;99939.98;1762255;79;21100;-59
2022/12/10 01:46:53;;;;;;;11.10;4.53;;;;;;;4.07;69.59;99934.33;1694518;82;21074;-59
2022/12/10 01:49:24;;;;;;;13.98;6.05;;;;;;;4.13;69.49;99924.83;1703799;82;21186;-60
2022/12/10 01:51:55;;;;;;;9.88;4.15;;;;;;;4.18;69.59;99921.95;1694329;82;21564;-59
2022/12/10 01:54:28;;;;;;;12.85;8.70;;;;;;;4.21;69.49;99923.89;1712931;83;21099;-59
2022/12/10 01:57:08;;;;;;;10.98;5.70;;;;;;;4.26;69.59;99921.84;1701725;83;21094;-59
2022/12/10 01:59:35;;;;;;;19.75;11.00;;;;;;;4.26;69.73;99906.69;1701822;82;21083;-59
2022/12/10 02:02:43;;;;;;;17.05;11.78;;;;;;;4.21;69.64;99893.95;1694253;82;21283;-59
2022/12/10 02:05:26;;;;;;;10.80;5.92;;;;;;;4.17;69.73;99888.56;1692604;82;21047;-59
2022/12/10 02:08:26;;;;;;;10.72;5.22;;;;;;;4.12;69.83;99891.06;1699624;82;21102;-58
2022/12/10 02:11:16;;;;;;;12.13;5.72;;;;;;;4.04;69.84;99883.73;1704084;82;21083;-58
2022/12/10 02:13:57;;;;;;;15.43;10.85;;;;;;;3.95;70.01;99877.77;1715169;82;21185;-59
2022/12/10 02:16:35;;;;;;;9.13;4.05;;;;;;;3.84;70.14;99883.16;1713768;83;21243;-59
2022/12/10 02:19:29;;;;;;;9.50;3.98;;;;;;;3.84;70.27;99884.47;1701173;82;21066;-59
2022/12/10 02:21:56;;;;;;;9.73;4.40;;;;;;;3.88;70.12;99876.86;1703712;82;21137;-59
2022/12/10 02:24:28;;;;;;;10.68;4.65;;;;;;;3.94;70.03;99869.61;1679978;83;21084;-59
2022/12/10 02:27:07;;;;;;;9.50;4.85;;;;;;;3.97;70.23;99862.89;1695592;82;21054;-58
2022/12/10 02:29:33;;;;;;;9.30;4.10;;;;;;;4.03;70.37;99859.92;1751459;81;21140;-58
2022/12/10 02:32:11;;;;;;;12.53;8.45;;;;;;;4.06;70.42;99855.84;1766311;80;21522;-59
2022/12/10 02:34:42;;;;;;;8.53;3.95;;;;;;;4.05;70.45;99855.01;1751230;81;21105;-58
2022/12/10 02:37:20;;;;;;;9.08;3.67;;;;;;;4.07;70.49;99856.22;1762060;79;21568;-58
2022/12/10 02:39:49;;;;;;;9.15;3.50;;;;;;;4.04;70.42;99852.50;1757538;79;21047;-58
2022/12/10 02:42:17;;;;;;;11.93;7.67;;;;;;;4.00;70.30;99848.39;1758700;81;21173;-59
2022/12/10 02:44:44;;;;;;;8.35;3.47;;;;;;;3.93;70.38;99836.69;1746711;79;21039;-59
2022/12/10 02:47:11;;;;;;;6.80;3.40;;;;;;;3.88;70.30;99839.13;1762370;79;21653;-59
2022/12/10 02:49:39;;;;;;;7.00;3.62;;;;;;;3.91;70.12;99840.20;1753582;79;21047;-59
2022/12/10 02:52:12;;;;;;;6.37;2.90;;;;;;;3.94;70.10;99841.80;1759515;79;21138;-58
2022/12/10 02:54:44;;;;;;;6.95;3.60;;;;;;;3.97;69.99;99836.86;1762956;81;21084;-58
2022/12/10 02:57:41;;;;;;;8.18;3.77;;;;;;;3.99;70.15;99829.81;1765999;81;21617;-58
2022/12/10 03:00:16;;;;;;;13.10;8.23;;;;;;;3.99;70.32;99829.81;1760791;81;28876;-58
2022/12/10 03:03:08;;;;;;;8.43;3.83;;;;;;;3.98;70.46;99833.34;1754786;81;21134;-58
2022/12/10 03:05:49;;;;;;;8.83;4.33;;;;;;;3.96;70.38;99823.48;1708562;80;21016;-59
2022/12/10 03:08:33;;;;;;;11.25;4.50;;;;;;;3.91;70.49;99834.17;1754042;80;21197;-59
2022/12/10 03:11:13;;;;;;;7.03;3.15;;;;;;;3.87;70.51;99842.64;1756350;80;21074;-59
2022/12/10 03:14:00;;;;;;;8.90;4.47;;;;;;;3.83;70.66;99842.47;1759928;80;21008;-58
2022/12/10 03:16:35;;;;;;;8.98;4.47;;;;;;;3.88;70.52;99836.96;1760566;81;21109;-59
2022/12/10 03:19:05;;;;;;;;;;;;;;;3.96;70.43;99836.50;1751970;81;20996;-58
2022/12/10 03:21:33;;;;;;;6.78;2.60;;;;;;;4.05;70.43;99832.02;1756993;80;21240;-59
2022/12/10 03:25:24;;;;;;;11.18;7.42;;;;;;;4.00;70.82;99820.61;1783327;78;22209;-58
2022/12/10 03:27:51;;;;;;;10.80;7.45;;;;;;;4.14;70.03;99809.33;1692619;83;21113;-59
2022/12/10 03:30:18;;;;;;;9.40;3.33;;;;;;;4.16;69.94;99808.77;1700564;83;22093;-58
2022/12/10 03:32:45;;;;;;;9.03;4.12;;;;;;;4.16;69.85;99805.33;1705058;83;21538;-59
2022/12/10 03:35:12;;;;;;;9.50;4.40;;;;;;;4.07;69.71;99802.37;1697343;83;21577;-59
2022/12/10 03:37:39;;;;;;;8.93;4.80;;;;;;;4.03;69.83;99803.95;1686012;83;21058;-57
2022/12/10 03:40:08;;;;;;;9.33;4.10;;;;;;;3.95;69.85;99814.00;1662394;84;21125;-59
2022/12/10 03:42:37;;;;;;;8.50;3.75;;;;;;;3.89;69.83;99808.72;1707617;83;21064;-58
2022/12/10 03:45:05;;;;;;;14.20;8.45;;;;;;;3.81;69.99;99799.23;1693459;83;21031;-58
2022/12/10 03:47:34;;;;;;;9.95;3.85;;;;;;;3.74;70.09;99790.97;1703747;83;21692;-58
2022/12/10 03:50:00;;;;;;;8.63;3.50;;;;;;;3.69;69.98;99793.02;1692147;83;21141;-59
2022/12/10 03:52:27;;;;;;;11.50;4.17;;;;;;;3.74;69.99;99793.56;1702828;83;21125;-58
2022/12/10 03:54:53;;;;;;;12.58;3.62;;;;;;;3.78;69.90;99792.91;1699020;82;21233;-58
2022/12/10 03:57:21;;;;;;;10.78;7.22;;;;;;;3.84;70.09;99792.55;1705151;84;21091;-58
2022/12/10 03:59:47;;;;;;;6.28;2.62;;;;;;;3.88;70.05;99793.57;1692139;83;21049;-58
2022/12/10 04:02:14;;;;;;;9.18;4.12;;;;;;;3.89;70.19;99793.09;1690724;83;21197;-58
2022/12/10 04:04:40;;;;;;;8.60;4.30;;;;;;;3.90;70.18;99787.80;1675729;84;21074;-58
2022/12/10 04:07:07;;;;;;;7.87;3.60;;;;;;;3.84;70.06;99792.07;1689349;83;21239;-58
2022/12/10 04:09:35;;;;;;;11.50;7.25;;;;;;;3.81;70.18;99795.33;1695184;83;21195;-57
2022/12/10 04:12:03;;;;;;;7.05;3.05;;;;;;;3.76;70.24;99782.59;1696975;83;21065;-57
2022/12/10 04:17:15;;;;;;;7.45;2.90;;;;;;;3.77;70.07;99785.58;1687201;84;21086;-58
2022/12/10 04:19:42;;;;;;;9.00;5.92;;;;;;;3.82;70.04;99786.13;1694821;83;21227;-56
2022/12/10 04:27:37;;;;;;;6.62;2.98;;;;;;;3.85;70.23;99772.94;1662901;84;21070;-57
2022/12/10 04:30:09;;;;;;;7.03;3.12;;;;;;;3.82;70.16;99769.69;1673704;84;21035;-58
2022/12/10 04:32:36;;;;;;;8.35;4.03;;;;;;;3.76;70.12;99757.05;1690200;83;21770;-58
2022/12/10 04:35:03;;;;;;;7.92;3.22;;;;;;;3.72;70.13;99761.61;1691279;84;21577;-58
2022/12/10 04:37:30;;;;;;;6.58;2.83;;;;;;;3.63;69.99;99759.11;1720890;82;21553;-58
2022/12/10 04:39:57;;;;;;;7.70;4.03;;;;;;;3.54;70.03;99762.26;1718159;82;21430;-59
2022/12/10 04:42:24;;;;;;;6.80;3.35;;;;;;;3.42;70.04;99748.23;1735426;80;21062;-58
2022/12/10 04:44:50;;;;;;;7.92;3.60;;;;;;;3.39;70.25;99746.28;1747508;80;21124;-57
2022/12/10 04:47:17;;;;;;;10.15;6.35;;;;;;;3.43;70.12;99741.25;1729191;80;21011;-57
2022/12/10 04:49:44;;;;;;;9.55;5.95;;;;;;;3.47;70.20;99736.25;1747814;81;21046;-58
2022/12/10 04:52:13;;;;;;;8.90;3.25;;;;;;;3.52;70.27;99736.34;1741227;81;21055;-58
2022/12/10 04:54:41;;;;;;;6.67;2.77;;;;;;;3.58;70.27;99724.73;1730397;82;21091;-59
2022/12/10 04:57:08;;;;;;;5.33;2.55;;;;;;;3.56;70.41;99721.84;1672974;83;21237;-59
2022/12/10 04:59:36;;;;;;;6.33;2.80;;;;;;;3.51;70.51;99710.41;1728462;82;21094;-58
2022/12/10 05:02:04;;;;;;;8.73;2.95;;;;;;;3.49;70.74;99708.38;1739436;82;21110;-58
2022/12/10 05:04:31;;;;;;;8.50;5.22;;;;;;;3.47;70.81;99702.44;1745114;80;21060;-59
2022/12/10 05:06:58;;;;;;;6.50;3.17;;;;;;;3.44;70.85;99695.65;1721495;82;21042;-58
2022/12/10 05:09:25;;;;;;;5.97;2.60;;;;;;;3.44;70.77;99689.14;1729151;80;21224;-59
2022/12/10 05:11:52;;;;;;;7.03;2.77;;;;;;;3.48;70.56;99698.45;1735244;80;21004;-58
2022/12/10 05:14:19;;;;;;;5.95;2.33;;;;;;;3.53;70.45;99705.95;1736367;80;21036;-59
2022/12/10 05:16:48;;;;;;;9.98;6.58;;;;;;;3.61;70.65;99707.61;1720712;82;21126;-58
2022/12/10 05:19:16;;;;;;;8.58;3.27;;;;;;;3.70;70.81;99700.55;1710649;82;21055;-59
2022/12/10 05:24:27;;;;;;;9.08;2.72;;;;;;;3.77;70.62;99691.07;1732056;80;21522;-60
2022/12/10 05:26:53;;;;;;;8.75;5.35;;;;;;;3.71;70.57;99684.47;1735062;82;21059;-58
2022/12/10 05:29:20;;;;;;;5.10;2.50;;;;;;;3.67;70.43;99682.52;1725546;81;21617;-58
2022/12/10 05:31:46;;;;;;;6.75;2.60;;;;;;;3.59;70.34;99677.44;1727987;82;21090;-57
2022/12/10 05:34:13;;;;;;;5.95;2.85;;;;;;;3.52;70.56;99680.41;1725534;81;21258;-58
2022/12/10 05:36:39;;;;;;;6.22;3.27;;;;;;;3.53;70.78;99683.39;1764925;80;21039;-57
2022/12/10 05:39:06;;;;;;;6.62;2.65;;;;;;;3.57;70.66;99679.30;1735574;80;21070;-58
2022/12/10 05:41:36;;;;;;;6.37;2.67;;;;;;;3.60;70.29;99675.19;1727032;80;21114;-58
2022/12/10 05:44:02;;;;;;;5.92;2.25;;;;;;;3.62;70.16;99668.14;1727617;82;21079;-58
2022/12/10 05:46:31;;;;;;;6.78;3.10;;;;;;;3.66;70.17;99669.61;1733835;80;21222;-58
2022/12/10 05:48:59;;;;;;;6.90;2.45;;;;;;;3.68;70.31;99662.09;1730969;81;21106;-57
2022/12/10 05:51:30;;;;;;;9.38;5.30;;;;;;;3.71;70.38;99665.77;1739357;80;21059;-58
2022/12/10 05:53:58;;;;;;;6.35;2.58;;;;;;;3.69;70.44;99663.74;1736381;82;21114;-58
2022/12/10 05:56:25;;;;;;;4.62;2.00;;;;;;;3.70;70.60;99667.20;1730742;80;21638;-60
2022/12/10 05:58:55;;;;;;;7.17;4.40;;;;;;;3.70;70.68;99657.62;1723524;80;22151;-58
2022/12/10 06:01:24;;;;;;;5.62;1.80;;;;;;;3.67;70.42;99644.80;1740573;82;21094;-57
2022/12/10 06:03:52;;;;;;;6.20;2.30;;;;;;;3.64;70.25;99648.89;1732504;81;21118;-59
2022/12/10 06:06:23;;;;;;;7.28;2.52;;;;;;;3.67;70.13;99641.38;1718276;81;21106;-60
2022/12/10 06:08:50;;;;;;;7.10;4.15;;;;;;;3.69;70.02;99646.00;1739561;80;21046;-58
2022/12/10 06:11:18;;;;;;;6.90;4.10;;;;;;;3.71;70.20;99642.83;1728978;80;21200;-58
2022/12/10 06:13:45;;;;;;;7.65;1.80;;;;;;;3.72;70.28;99636.70;1719690;80;21146;-59
2022/12/10 06:16:13;;;;;;;6.62;4.28;;;;;;;3.73;70.37;99630.55;1737699;80;21075;-59
2022/12/10 06:18:41;;;;;;;5.47;2.72;;;;;;;3.72;70.28;99625.83;1735693;80;21036;-58
2022/12/10 06:21:11;;;;;;;6.67;2.67;;;;;;;3.68;70.36;99633.47;1733631;80;21582;-59
2022/12/10 06:23:38;;;;;;;8.53;5.12;;;;;;;3.66;70.53;99640.98;1767993;80;21767;-59
2022/12/10 06:28:22;;;;;;;5.15;1.65;;;;;;;3.61;71.06;99633.47;1795104;78;22684;-60
2022/12/10 06:30:49;;;;;;;7.15;4.45;;;;;;;3.80;70.40;99637.06;1777222;79;21744;-60
2022/12/10 06:33:15;;;;;;;5.53;1.95;;;;;;;3.92;70.29;99639.34;1766000;78;21983;-60
2022/12/10 06:35:42;;;;;;;7.83;4.62;;;;;;;4.02;70.21;99636.98;1770302;79;21038;-60
2022/12/10 06:38:08;;;;;;;5.83;2.22;;;;;;;4.09;70.04;99633.86;1770177;80;21089;-60
2022/12/10 06:40:35;;;;;;;7.22;2.87;;;;;;;4.13;69.88;99629.77;1763461;80;21101;-60
2022/12/10 06:43:01;;;;;;;7.03;4.80;;;;;;;4.12;69.81;99638.05;1754473;80;21070;-60
2022/12/10 06:45:28;;;;;;;5.50;2.02;;;;;;;4.10;69.62;99645.11;1771556;79;21258;-60
2022/12/10 06:47:55;;;;;;;4.40;1.90;;;;;;;4.04;69.63;99640.31;1763660;78;21050;-60
2022/12/10 06:50:21;;;;;;;5.62;2.45;;;;;;;3.99;69.64;99638.48;1768280;79;21591;-60
2022/12/10 06:52:50;;;;;;;4.65;1.80;;;;;;;3.94;69.67;99640.07;1788413;80;21090;-60
2022/12/10 06:55:18;;;;;;;5.65;2.30;;;;;;;3.91;69.76;99644.99;1781101;79;21484;-60
2022/12/10 06:57:44;;;;;;;6.92;3.45;;;;;;;3.88;69.75;99636.55;1774251;79;22249;-60
2022/12/10 07:00:13;;;;;;;5.47;2.15;;;;;;;3.95;69.72;99626.58;1776161;79;21558;-60
2022/12/10 07:02:40;;;;;;;5.83;1.92;;;;;;;4.02;69.48;99622.66;1775519;80;21019;-60
2022/12/10 07:05:08;;;;;;;7.08;2.70;;;;;;;4.08;69.53;99619.64;1757077;80;21031;-60
2022/12/10 07:07:36;;;;;;;7.25;4.22;;;;;;;4.15;69.58;99627.89;1762481;78;21552;-60
2022/12/10 07:10:04;;;;;;;8.38;5.00;;;;;;;4.19;69.60;99617.66;1773959;79;21907;-60
2022/12/10 07:12:32;;;;;;;4.85;2.17;;;;;;;4.20;69.50;99611.49;1762629;80;21098;-60
2022/12/10 07:14:59;;;;;;;5.50;2.12;;;;;;;4.17;69.40;99611.24;1774120;79;21023;-60
2022/12/10 07:17:26;;;;;;;7.45;4.58;;;;;;;4.11;69.35;99610.81;1766001;80;21077;-60
2022/12/10 07:19:53;;;;;;;6.12;2.67;;;;;;;4.06;69.41;99598.09;1777465;78;21105;-60
2022/12/10 07:22:20;;;;;;;5.70;2.25;;;;;;;4.06;69.43;99601.52;1739361;80;21242;-60
2022/12/10 07:24:48;;;;;;;4.97;1.87;;;;;;;4.10;69.31;99604.75;1769681;78;21481;-60
2022/12/10 07:27:16;;;;;;;8.53;5.10;;;;;;;4.17;69.35;99597.37;1732902;81;21125;-60
2022/12/10 07:29:44;;;;;;;3.77;1.32;;;;;;;4.22;69.29;99584.88;1768303;79;21043;-60
2022/12/10 07:32:10;;;;;;;7.75;2.85;;;;;;;4.23;69.26;99582.66;1746471;80;21524;-60
2022/12/10 07:34:37;;;;;;;8.48;4.70;;;;;;;4.21;69.40;99583.23;1755268;79;21727;-60
2022/12/10 07:37:04;;;;;;;6.22;2.70;;;;;;;4.21;69.42;99583.23;1717603;82;21067;-60
2022/12/10 07:39:30;;;;;;;9.50;5.08;;;;;;;4.22;69.45;99583.13;1763904;79;21599;-60
2022/12/10 07:41:57;;;;;;;5.87;2.55;;;;;;;4.18;69.39;99572.53;1768215;79;21673;-60
2022/12/10 07:44:25;;;;;;;6.17;1.90;;;;;;;4.18;69.16;99566.50;1765268;80;21832;-60
2022/12/10 07:46:53;;;;;;;6.72;2.55;;;;;;;4.16;68.95;99565.30;1762474;80;21295;-60
2022/12/10 07:49:20;;;;;;;8.05;4.75;;;;;;;4.17;68.96;99566.13;1758850;79;21118;-60
2022/12/10 07:51:49;;;;;;;7.42;2.98;;;;;;;4.18;69.29;99567.33;1725510;81;21024;-60
2022/12/10 07:54:16;;;;;;;5.55;2.37;;;;;;;4.22;69.38;99564.05;1753872;80;21052;-60
2022/12/10 07:56:43;;;;;;;7.75;2.85;;;;;;;4.18;69.31;99564.72;1757256;80;21532;-60
2022/12/10 07:59:10;;;;;;;9.55;5.67;;;;;;;4.09;69.26;99559.66;1762552;80;21774;-60
2022/12/10 08:01:37;;;;;;;6.05;2.62;;;;;;;4.04;69.59;99555.71;1762845;80;21455;-60
2022/12/10 08:04:04;;;;;;;4.90;1.70;;;;;;;4.00;69.69;99553.78;1753551;79;21109;-61
2022/12/10 08:06:30;;;;;;;8.35;5.30;;;;;;;3.98;69.87;99543.09;1768175;80;22182;-60
2022/12/10 08:09:00;;;;;;;7.25;2.62;;;;;;;3.96;70.07;99537.98;1758669;80;21511;-60
2022/12/10 08:11:27;;;;;;;5.75;2.30;;;;;;;3.99;70.13;99525.24;1766294;79;21254;-60
2022/12/10 08:13:53;;;;;;;4.62;2.25;;;;;;;4.07;69.99;99522.48;1754585;80;21019;-61
2022/12/10 08:16:25;;;;;;;9.43;4.70;;;;;;;4.14;69.95;99530.73;1768745;80;21023;-61
2022/12/10 08:18:52;;;;;;;8.10;4.75;;;;;;;4.22;69.96;99520.63;1746636;80;21054;-60
2022/12/10 08:21:21;;;;;;;9.90;5.53;;;;;;;4.34;70.12;99519.41;1747200;80;21608;-61
2022/12/10 08:23:48;;;;;;;6.25;1.95;;;;;;;4.39;70.17;99516.06;1697261;82;21376;-61
2022/12/10 08:26:18;;;;;;;6.00;2.27;;;;;;;4.42;70.02;99516.67;1769786;80;21038;-61
2022/12/10 08:28:45;;;;;;;9.83;5.92;;;;;;;4.41;70.00;99519.38;1762393;80;21066;-60
2022/12/10 08:31:13;;;;;;;5.65;3.02;;;;;;;4.40;69.93;99507.28;1753550;80;21027;-60
2022/12/10 08:33:40;;;;;;;10.05;6.58;;;;;;;4.36;69.83;99505.84;1748135;81;21553;-61
2022/12/10 08:39:07;;;;;;;5.97;2.27;;;;;;;4.39;69.95;99495.22;1633667;85;21564;-60
2022/12/10 08:41:33;;;;;;;7.87;4.92;;;;;;;4.46;69.62;99502.97;1632086;86;21525;-61
2022/12/10 08:44:00;;;;;;;6.05;2.70;;;;;;;4.49;69.65;99489.73;1633356;86;21648;-61
2022/12/10 08:46:26;;;;;;;12.75;5.67;;;;;;;4.57;69.87;99492.65;1632034;86;21556;-61
2022/12/10 08:48:54;;;;;;;7.50;2.83;;;;;;;4.61;69.94;99494.09;1640986;86;22292;-60
2022/12/10 08:51:21;;;;;;;9.95;6.17;;;;;;;4.64;70.03;99500.39;1633941;86;21074;-61
2022/12/10 08:53:48;;;;;;;26.23;3.37;;;;;;;4.68;70.10;99489.77;1654956;86;21044;-59
2022/12/10 08:56:16;;;;;;;8.58;6.00;;;;;;;4.65;69.86;99487.70;1637873;86;21070;-58
2022/12/10 08:58:42;;;;;;;8.13;2.87;;;;;;;4.59;69.83;99481.64;1634325;86;21102;-60
2022/12/10 09:01:12;;;;;;;10.10;2.65;;;;;;;4.58;69.83;99481.27;1627281;86;21154;-60
2022/12/10 09:03:40;;;;;;;7.35;2.90;;;;;;;4.67;69.86;99469.84;1624990;86;21344;-59
2022/12/10 09:06:10;;;;;;;11.95;5.97;;;;;;;4.72;69.74;99466.44;1605053;87;21074;-59
2022/12/10 09:08:37;;;;;;;7.65;2.30;;;;;;;4.75;69.61;99472.27;1619495;87;21093;-59
2022/12/10 09:11:09;;;;;;;10.48;6.33;;;;;;;4.79;69.73;99468.97;1638227;86;21608;-58
2022/12/10 09:13:35;;;;;;;9.58;6.15;;;;;;;4.80;69.89;99464.13;1636031;86;21811;-59
2022/12/10 09:16:02;;;;;;;12.85;6.65;;;;;;;4.80;70.04;99458.92;1627855;86;21620;-60
2022/12/10 09:18:29;;;;;;;7.92;3.52;;;;;;;4.83;70.10;99453.49;1635390;86;21015;-60
2022/12/10 09:20:56;;;;;;;11.53;7.05;;;;;;;4.82;70.02;99446.16;1635284;86;21126;-61
2022/12/10 09:23:22;;;;;;;6.17;2.70;;;;;;;4.79;69.91;99445.06;1637942;86;21136;-59
2022/12/10 09:25:49;;;;;;;7.67;2.77;;;;;;;4.81;70.07;99444.48;1640726;86;21201;-60
2022/12/10 09:28:15;;;;;;;11.33;6.03;;;;;;;4.87;69.73;99441.07;1621951;87;21035;-61
2022/12/10 09:30:43;;;;;;;9.80;6.47;;;;;;;4.89;69.53;99440.48;1641791;86;21145;-59
2022/12/10 09:33:10;;;;;;;14.20;6.92;;;;;;;4.93;69.78;99441.95;1643899;86;21011;-59
2022/12/10 09:35:42;;;;;;;11.70;6.67;;;;;;;4.96;70.05;99438.64;1631928;86;21548;-60
2022/12/10 09:38:10;;;;;;;7.20;2.72;;;;;;;4.97;70.03;99424.65;1630691;86;21136;-60
2022/12/10 09:40:47;;;;;;;10.65;6.47;;;;;;;4.96;70.11;99420.39;1635888;86;21507;-60
2022/12/10 09:43:26;;;;;;;;;;;;;;;4.96;70.05;99417.78;1636331;86;21109;-60
2022/12/10 09:46:19;;;;;;;8.85;3.40;;;;;;;4.92;70.02;99411.11;1634792;86;20211;-60
2022/12/10 09:49:07;;;;;;;6.90;2.42;;;;;;;4.87;69.99;99408.00;1647126;86;21105;-62
2022/12/10 09:51:37;;;;;;;8.98;3.58;;;;;;;4.77;69.90;99406.52;1637721;86;21122;-60
2022/12/10 09:56:55;;;;;;;9.40;5.85;;;;;;;4.57;70.72;99396.25;1775502;78;22692;-60
2022/12/10 09:59:40;;;;;;;5.95;2.55;;;;;;;4.73;70.00;99396.45;1746104;80;20881;-60
2022/12/10 10:02:28;;;;;;;12.13;6.90;;;;;;;4.79;70.23;99395.55;1746975;81;21125;-60
2022/12/10 10:05:09;;;;;;;8.85;5.90;;;;;;;4.88;70.19;99390.13;1720133;82;21026;-61
2022/12/10 10:07:40;;;;;;;6.47;3.30;;;;;;;4.94;70.13;99391.45;1705838;81;21081;-60
2022/12/10 10:10:11;;;;;;;10.13;5.90;;;;;;;4.97;70.66;99380.33;1695605;81;21125;-61
2022/12/10 10:12:38;;;;;;;9.58;5.42;;;;;;;5.01;70.74;99385.70;1691816;83;21059;-60
2022/12/10 10:15:16;;;;;;;10.72;6.90;;;;;;;5.05;70.62;99376.34;1693107;83;22086;-61
2022/12/10 10:17:45;;;;;;;6.95;2.58;;;;;;;5.05;70.57;99371.95;1693618;83;21145;-60
2022/12/10 10:20:12;;;;;;;8.08;3.58;;;;;;;5.09;70.49;99368.16;1687781;83;21039;-60
2022/12/10 10:22:39;;;;;;;10.75;5.78;;;;;;;5.15;70.09;99359.08;1698291;82;21083;-60
2022/12/10 10:25:11;;;;;;;10.75;6.17;;;;;;;5.22;69.92;99361.59;1708946;82;21082;-60
2022/12/10 10:27:38;;;;;;;9.33;6.40;;;;;;;5.28;70.04;99368.97;1688191;82;21281;-61
2022/12/10 10:30:07;;;;;;;14.35;6.70;;;;;;;5.33;70.25;99365.54;1708927;82;21050;-60
2022/12/10 10:32:45;;;;;;;11.43;7.25;;;;;;;5.34;70.19;99365.05;1705505;82;21128;-61
2022/12/10 10:35:31;;;;;;;7.00;3.67;;;;;;;5.36;70.35;99364.02;1708336;82;21137;-60
2022/12/10 10:38:10;;;;;;;8.28;3.00;;;;;;;5.42;70.47;99361.89;1690035;82;21031;-60
2022/12/10 10:40:43;;;;;;;13.48;6.95;;;;;;;5.40;70.11;99357.61;1706051;82;21265;-60
2022/12/10 10:43:23;;;;;;;6.22;2.98;;;;;;;5.35;70.09;99357.12;1702966;82;21074;-60
2022/12/10 10:46:01;;;;;;;8.50;3.60;;;;;;;5.38;70.19;99367.33;1711856;83;21070;-61
2022/12/10 10:48:28;;;;;;;11.20;6.50;;;;;;;5.44;69.89;99358.20;1716633;82;21102;-61
2022/12/10 10:51:07;;;;;;;6.72;3.22;;;;;;;5.51;70.04;99354.17;1710777;82;21065;-60
2022/12/10 10:53:52;;;;;;;11.68;7.17;;;;;;;5.59;69.81;99356.22;1713839;82;21146;-61
2022/12/10 10:56:40;;;;;;;6.83;3.08;;;;;;;5.63;69.70;99363.34;1706176;81;21443;-60
2022/12/10 10:59:19;;;;;;;11.75;7.05;;;;;;;5.63;69.75;99364.64;1704733;82;21516;-60
2022/12/10 11:01:51;;;;;;;11.35;4.03;;;;;;;5.64;69.90;99368.92;1701765;83;21552;-60
2022/12/10 11:04:37;;;;;;;10.50;6.78;;;;;;;5.62;69.96;99367.73;1703068;83;21752;-61
2022/12/10 11:07:07;;;;;;;11.97;8.08;;;;;;;5.64;69.94;99359.79;1706069;83;21283;-61
2022/12/10 11:09:34;;;;;;;11.50;6.92;;;;;;;5.61;69.91;99346.97;1701548;82;21067;-60
2022/12/10 11:12:05;;;;;;;7.40;2.65;;;;;;;5.62;69.66;99363.00;1695876;83;21125;-61
2022/12/10 11:14:40;;;;;;;10.95;7.03;;;;;;;5.64;69.40;99367.14;1693603;83;21135;-61
2022/12/10 11:17:13;;;;;;;11.53;7.80;;;;;;;5.72;69.49;99363.96;1703917;83;21541;-61
2022/12/10 11:19:46;;;;;;;14.85;7.12;;;;;;;5.78;69.40;99353.03;1710947;82;21122;-61
2022/12/10 11:22:31;;;;;;;12.35;8.08;;;;;;;5.75;69.23;99357.20;1703431;83;21038;-61
2022/12/10 11:24:59;;;;;;;14.68;8.35;;;;;;;5.71;69.39;99349.23;1711341;82;21435;-62
2022/12/10 11:28:03;;;;;;;12.13;8.50;;;;;;;5.70;69.37;99342.34;1694934;83;21142;-59
2022/12/10 11:30:30;;;;;;;9.50;4.30;;;;;;;5.62;69.27;99337.72;1694866;84;21607;-61
2022/12/10 11:33:55;;;;;;;19.57;12.45;;;;;;;5.54;69.37;99334.86;1696611;84;21171;-60
2022/12/10 11:36:37;;;;;;;10.70;5.35;;;;;;;5.46;69.49;99335.91;1695905;84;21042;-60
2022/12/10 11:39:12;;;;;;;10.08;5.03;;;;;;;5.46;69.56;99341.12;1706180;82;21087;-60
2022/12/10 11:41:47;;;;;;;15.10;10.53;;;;;;;5.48;69.38;99337.92;1702220;82;21062;-60
2022/12/10 11:44:35;;;;;;;11.05;5.35;;;;;;;5.52;69.56;99338.07;1685328;83;21050;-60
2022/12/10 11:47:29;;;;;;;13.80;10.15;;;;;;;5.54;69.56;99336.16;1695860;83;22164;-60
2022/12/10 11:50:16;;;;;;;13.83;9.50;;;;;;;5.50;69.61;99333.45;1696594;82;21059;-60
2022/12/10 11:53:07;;;;;;;13.50;9.03;;;;;;;5.50;69.96;99323.01;1701170;83;21545;-60
2022/12/10 11:55:54;;;;;;;9.83;4.80;;;;;;;5.49;70.25;99327.38;1700458;82;21155;-60
2022/12/10 11:58:50;;;;;;;12.53;8.45;;;;;;;5.48;70.07;99328.80;1714307;83;21117;-60
2022/12/10 12:01:49;;;;;;;8.45;4.20;;;;;;;5.41;70.09;99321.91;1713596;83;22084;-60
2022/12/10 12:05:07;;;;;;;8.95;3.87;;;;;;;5.39;70.05;99310.27;1705243;82;21052;-60
2022/12/10 12:08:28;;;;;;;9.98;3.80;;;;;;;5.44;69.79;99306.50;1712141;82;21071;-60
2022/12/10 12:11:06;;;;;;;15.78;9.53;;;;;;;5.49;70.16;99304.38;1705972;82;20996;-60
2022/12/10 12:13:57;;;;;;;10.88;5.75;;;;;;;5.55;70.18;99303.92;1690738;84;21162;-62
2022/12/10 12:16:32;;;;;;;14.53;9.35;;;;;;;5.54;70.30;99306.16;1702536;82;21165;-60